Etusivu
METAR-TAF:

METAR-TAF

Lentoasemat :

Newquay Cornwall, Englanti

Leveyspiiri: 50-26N, Pituuspiiri: 005-00W, korkeus merenpinnasta: 119 m

Tämänhetkinen sää

Tämä raportti tehtiin 34 minuuttia sitten, kello 05.50 UTC
Tuuli 15 kn lännestä/lounaasta
Lämpötila 8°C
Kosteus 76%
Ilmanpaine 1025 hPa
Näkyvyys 10 km tai enemmän

METAR: EGHQ 210550Z AUTO 24015KT 9999 FEW020/// BKN038/// 08/04 Q1025

Aika: 06:24 (06:24 UTC)

Sääennuste

Tämä raportti tehtiin 1 tunti ja 21 minuuttia sitten, kello 05.03 UTC
Ennuste voimassa 21. päivästä klo 06 UTC - 21. päivään klo 15 UTC
Tuuli 12 kn lounaasta
Näkyvyys 10 km tai enemmän
Hajanaisia pilviä 2500 ft:n korkeudessa
Tulossa
21. päivästä klo 06 UTC - 21. päivään klo 09 UTC
Tuuli 18 kn lännestä/lounaasta puuskistuen 28 kn:hen
Ajoittain
21. päivästä klo 09 UTC - 21. päivään klo 15 UTC
Tuuli 28 kn lännestä puuskistuen 38 kn:hen

TAF: EGHQ 210503Z 2106/2115 23012KT 9999 SCT025 BECMG 2106/2109 25018G28KT TEMPO 2109/2115 26028G38KT

Säähavainnot ja -ennusteet yli 4000 lentoasemalta (METAR- ja TAF-raportit).

Käytössä olevat sääasemat on merkitty karttaan keltaisilla ja punaisilla pisteillä.

Aseta hiiri pisteen päälle nähdäksesi sääaseman nimen.

Klikkaa sitten nähdäksesi säähavainnot ja -ennusteet.

Kartan vaihtaminen: klikkaa mustalla rastilla varustettuja vihreitä pisteitä, niin voit zoomata sisään; viivalla varustettua vihreää pistettä, niin voit zoomata ulos tai vihreitä nuolia, niin pääset viereisille kartoille.


METAR-TAF: